CheckWX is a tool to help pilots better visualize weather data.  It is not intended as a substitute for an official pre-flight weather briefing.

15:42:01 UTC

KDHN TAF
Dothan Regional Airport
Dothan, Alabama, USA
KDHN 241124Z 2412/2512 21005KT P6SM SCT250 TEMPO 2412/2414 6SM BR BKN020 FM241500 24014KT P6SM SCT050 FM241800 26016KT P6SM VCTS BKN050CB BKN250 FM250000 25011KT P6SM BKN250

Jun-24@
12:00 UTC

Jun-24 @ 12:00 UTC

Jun-24@
15:00 UTC

Jun-24 @ 15:00 UTC

KDHN 241124Z 2412/2512 21005KT P6SM SCT250

Expired

Wind
  • 210° at 5 KTS
Cloud Levels
  • Scattered at 25,000' AGL

Jun-24@
12:00 UTC

Jun-24 @ 12:00 UTC

Jun-24@
14:00 UTC

Jun-24 @ 14:00 UTC

TEMPO 2412/2414 6SM BR BKN020

Expired

Conditions
Mist
Cloud Levels
  • Broken at 2,000' AGL

Jun-24@
15:00 UTC

Jun-24 @ 15:00 UTC

Jun-24@
18:00 UTC

Jun-24 @ 18:00 UTC

FM241500 24014KT P6SM SCT050

From

From Standard forecast or significant change

Wind
  • 240° at 14 KTS
Cloud Levels
  • Scattered at 5,000' AGL

Jun-24@
18:00 UTC

Jun-24 @ 18:00 UTC

Jun-25@
00:00 UTC

Jun-25 @ 00:00 UTC

FM241800 26016KT P6SM VCTS BKN050CB BKN250

From

From Standard forecast or significant change

Wind
  • 260° at 16 KTS
Conditions
Area Thunderstorm
Cloud Levels
  • Broken at 5,000' AGL
  • Broken at 25,000' AGL

Jun-25@
00:00 UTC

Jun-25 @ 00:00 UTC

Jun-25@
12:00 UTC

Jun-25 @ 12:00 UTC

FM250000 25011KT P6SM BKN250

From

From Standard forecast or significant change

Wind
  • 250° at 11 KTS
Cloud Levels
  • Broken at 25,000' AGL